sensor_id;sensor_type;location;lat;lon;timestamp;temperature;humidity
5466;DHT22;2755;50.728;7.108;2023-02-08T00:14:06;-1.80;99.90
5466;DHT22;2755;50.728;7.108;2023-02-08T00:21:25;-2.00;99.90
5466;DHT22;2755;50.728;7.108;2023-02-08T00:36:04;-2.10;99.90
5466;DHT22;2755;50.728;7.108;2023-02-08T00:45:56;-2.10;99.90
5466;DHT22;2755;50.728;7.108;2023-02-08T00:51:09;-2.20;99.90
5466;DHT22;2755;50.728;7.108;2023-02-08T00:53:39;-2.10;99.90
5466;DHT22;2755;50.728;7.108;2023-02-08T00:56:06;-2.00;99.90
5466;DHT22;2755;50.728;7.108;2023-02-08T00:58:32;-2.00;99.90
5466;DHT22;2755;50.728;7.108;2023-02-08T01:05:51;-2.00;99.90
5466;DHT22;2755;50.728;7.108;2023-02-08T01:18:04;-2.10;99.90
5466;DHT22;2755;50.728;7.108;2023-02-08T01:20:30;-2.10;99.90
5466;DHT22;2755;50.728;7.108;2023-02-08T01:22:56;-2.20;99.90
5466;DHT22;2755;50.728;7.108;2023-02-08T01:30:13;-2.40;99.90
5466;DHT22;2755;50.728;7.108;2023-02-08T01:39:57;-2.30;99.90
5466;DHT22;2755;50.728;7.108;2023-02-08T01:45:20;-2.20;99.90
5466;DHT22;2755;50.728;7.108;2023-02-08T01:48:10;-2.10;99.90
5466;DHT22;2755;50.728;7.108;2023-02-08T01:50:54;-2.20;99.90
5466;DHT22;2755;50.728;7.108;2023-02-08T01:53:22;-2.20;99.90
5466;DHT22;2755;50.728;7.108;2023-02-08T01:55:51;-2.30;99.90
5466;DHT22;2755;50.728;7.108;2023-02-08T01:58:19;-2.30;99.90
5466;DHT22;2755;50.728;7.108;2023-02-08T02:00:46;-2.40;99.90
5466;DHT22;2755;50.728;7.108;2023-02-08T02:05:41;-2.50;99.90
5466;DHT22;2755;50.728;7.108;2023-02-08T02:08:08;-2.50;99.90
5466;DHT22;2755;50.728;7.108;2023-02-08T02:10:36;-2.40;99.90
5466;DHT22;2755;50.728;7.108;2023-02-08T02:13:10;-2.40;99.90
5466;DHT22;2755;50.728;7.108;2023-02-08T02:18:05;-2.40;99.90
5466;DHT22;2755;50.728;7.108;2023-02-08T02:23:49;-2.40;99.90
5466;DHT22;2755;50.728;7.108;2023-02-08T02:38:15;-2.30;99.90
5466;DHT22;2755;50.728;7.108;2023-02-08T02:41:05;-2.30;99.90
5466;DHT22;2755;50.728;7.108;2023-02-08T02:43:53;-2.30;99.90
5466;DHT22;2755;50.728;7.108;2023-02-08T02:46:23;-2.40;99.90
5466;DHT22;2755;50.728;7.108;2023-02-08T02:54:07;-2.60;99.90
5466;DHT22;2755;50.728;7.108;2023-02-08T02:56:40;-3.00;99.90
5466;DHT22;2755;50.728;7.108;2023-02-08T02:59:09;-2.80;99.90
5466;DHT22;2755;50.728;7.108;2023-02-08T03:01:36;-2.80;99.90
5466;DHT22;2755;50.728;7.108;2023-02-08T03:04:56;-2.90;99.90
5466;DHT22;2755;50.728;7.108;2023-02-08T03:15:22;-2.70;99.90
5466;DHT22;2755;50.728;7.108;2023-02-08T03:21:09;-2.60;99.90
5466;DHT22;2755;50.728;7.108;2023-02-08T03:24:07;-2.60;99.90
5466;DHT22;2755;50.728;7.108;2023-02-08T03:34:13;-2.90;99.90
5466;DHT22;2755;50.728;7.108;2023-02-08T03:36:48;-2.40;99.90
5466;DHT22;2755;50.728;7.108;2023-02-08T03:39:22;-2.40;99.90
5466;DHT22;2755;50.728;7.108;2023-02-08T03:41:52;-2.40;99.90
5466;DHT22;2755;50.728;7.108;2023-02-08T03:44:25;-2.50;99.90
5466;DHT22;2755;50.728;7.108;2023-02-08T03:46:55;-2.50;99.90
5466;DHT22;2755;50.728;7.108;2023-02-08T03:49:25;-2.40;99.90
5466;DHT22;2755;50.728;7.108;2023-02-08T03:51:55;-2.50;99.90
5466;DHT22;2755;50.728;7.108;2023-02-08T03:54:24;-2.40;99.90
5466;DHT22;2755;50.728;7.108;2023-02-08T03:57:09;-2.40;99.90
5466;DHT22;2755;50.728;7.108;2023-02-08T03:59:40;-2.40;99.90
5466;DHT22;2755;50.728;7.108;2023-02-08T04:02:09;-2.50;99.90
5466;DHT22;2755;50.728;7.108;2023-02-08T04:04:43;-2.60;99.90
5466;DHT22;2755;50.728;7.108;2023-02-08T04:12:01;-2.70;99.90
5466;DHT22;2755;50.728;7.108;2023-02-08T04:14:26;-2.70;99.90
5466;DHT22;2755;50.728;7.108;2023-02-08T04:29:02;-2.70;99.90
5466;DHT22;2755;50.728;7.108;2023-02-08T04:33:54;-2.70;99.90
5466;DHT22;2755;50.728;7.108;2023-02-08T04:38:46;-2.80;99.90
5466;DHT22;2755;50.728;7.108;2023-02-08T04:50:57;-2.90;99.90
5466;DHT22;2755;50.728;7.108;2023-02-08T04:53:23;-2.80;99.90
5466;DHT22;2755;50.728;7.108;2023-02-08T04:55:50;-2.80;99.90
5466;DHT22;2755;50.728;7.108;2023-02-08T04:58:16;-2.80;99.90
5466;DHT22;2755;50.728;7.108;2023-02-08T05:08:00;-3.00;99.90
5466;DHT22;2755;50.728;7.108;2023-02-08T05:10:26;-2.80;99.90
5466;DHT22;2755;50.728;7.108;2023-02-08T05:20:11;-2.90;99.90
5466;DHT22;2755;50.728;7.108;2023-02-08T05:39:39;-3.20;99.90
5466;DHT22;2755;50.728;7.108;2023-02-08T05:42:06;-3.10;99.90
5466;DHT22;2755;50.728;7.108;2023-02-08T05:46:57;-3.00;99.90
5466;DHT22;2755;50.728;7.108;2023-02-08T05:54:16;-3.00;99.90
5466;DHT22;2755;50.728;7.108;2023-02-08T05:59:08;-3.10;99.90
5466;DHT22;2755;50.728;7.108;2023-02-08T06:01:35;-3.10;99.90
5466;DHT22;2755;50.728;7.108;2023-02-08T06:06:27;-3.10;99.90
5466;DHT22;2755;50.728;7.108;2023-02-08T06:08:53;-3.10;99.90
5466;DHT22;2755;50.728;7.108;2023-02-08T06:13:46;-3.10;99.90
5466;DHT22;2755;50.728;7.108;2023-02-08T06:16:12;-3.30;99.90
5466;DHT22;2755;50.728;7.108;2023-02-08T06:23:30;-3.40;99.90
5466;DHT22;2755;50.728;7.108;2023-02-08T06:35:44;-3.30;99.90
5466;DHT22;2755;50.728;7.108;2023-02-08T06:38:10;-4.10;99.90
5466;DHT22;2755;50.728;7.108;2023-02-08T06:40:36;-3.50;99.90
5466;DHT22;2755;50.728;7.108;2023-02-08T07:00:04;-3.20;99.90
5466;DHT22;2755;50.728;7.108;2023-02-08T07:09:48;-3.10;99.90
5466;DHT22;2755;50.728;7.108;2023-02-08T07:14:41;-3.20;99.90
5466;DHT22;2755;50.728;7.108;2023-02-08T07:17:07;-3.20;99.90
5466;DHT22;2755;50.728;7.108;2023-02-08T07:21:59;-2.60;99.90
5466;DHT22;2755;50.728;7.108;2023-02-08T07:26:55;-2.30;99.90
5466;DHT22;2755;50.728;7.108;2023-02-08T07:41:30;-3.00;99.90
5466;DHT22;2755;50.728;7.108;2023-02-08T07:43:58;-2.30;99.90
5466;DHT22;2755;50.728;7.108;2023-02-08T07:56:09;-1.00;99.90
5466;DHT22;2755;50.728;7.108;2023-02-08T07:58:35;-1.20;99.90
5466;DHT22;2755;50.728;7.108;2023-02-08T08:13:12;-0.50;99.90
5466;DHT22;2755;50.728;7.108;2023-02-08T08:15:38;0.00;99.90
5466;DHT22;2755;50.728;7.108;2023-02-08T08:30:15;3.70;84.40
5466;DHT22;2755;50.728;7.108;2023-02-08T08:35:07;4.40;68.50
5466;DHT22;2755;50.728;7.108;2023-02-08T08:39:59;4.80;59.90
5466;DHT22;2755;50.728;7.108;2023-02-08T08:44:52;5.20;54.00
5466;DHT22;2755;50.728;7.108;2023-02-08T08:52:10;5.30;55.20
5466;DHT22;2755;50.728;7.108;2023-02-08T08:57:02;6.00;51.20
5466;DHT22;2755;50.728;7.108;2023-02-08T09:04:20;6.60;44.70
5466;DHT22;2755;50.728;7.108;2023-02-08T09:06:48;6.70;47.00
5466;DHT22;2755;50.728;7.108;2023-02-08T09:09:14;7.10;45.10
5466;DHT22;2755;50.728;7.108;2023-02-08T09:14:06;7.10;38.80
5466;DHT22;2755;50.728;7.108;2023-02-08T09:19:02;6.60;34.80
5466;DHT22;2755;50.728;7.108;2023-02-08T09:21:28;6.80;40.00
5466;DHT22;2755;50.728;7.108;2023-02-08T09:26:19;6.30;36.90
5466;DHT22;2755;50.728;7.108;2023-02-08T09:46:20;4.20;42.40
5466;DHT22;2755;50.728;7.108;2023-02-08T09:48:51;4.70;42.30
5466;DHT22;2755;50.728;7.108;2023-02-08T09:51:36;5.00;39.90
5466;DHT22;2755;50.728;7.108;2023-02-08T09:54:23;5.30;38.10
5466;DHT22;2755;50.728;7.108;2023-02-08T09:59:25;6.50;30.90
5466;DHT22;2755;50.728;7.108;2023-02-08T10:01:58;6.90;30.40
5466;DHT22;2755;50.728;7.108;2023-02-08T10:09:25;7.30;25.40
5466;DHT22;2755;50.728;7.108;2023-02-08T10:12:10;7.60;24.80
5466;DHT22;2755;50.728;7.108;2023-02-08T10:17:38;7.60;23.90
5466;DHT22;2755;50.728;7.108;2023-02-08T10:36:19;7.60;17.20
5466;DHT22;2755;50.728;7.108;2023-02-08T10:38:48;8.00;14.30
5466;DHT22;2755;50.728;7.108;2023-02-08T10:41:19;8.60;13.40
5466;DHT22;2755;50.728;7.108;2023-02-08T10:46:51;8.90;13.80
5466;DHT22;2755;50.728;7.108;2023-02-08T10:49:32;9.30;6.80
5466;DHT22;2755;50.728;7.108;2023-02-08T10:56:59;9.90;1.80
5466;DHT22;2755;50.728;7.108;2023-02-08T10:59:34;11.90;1.00
5466;DHT22;2755;50.728;7.108;2023-02-08T11:09:30;10.10;1.00
5466;DHT22;2755;50.728;7.108;2023-02-08T11:11:57;9.90;1.00
5466;DHT22;2755;50.728;7.108;2023-02-08T11:16:51;10.20;1.00
5466;DHT22;2755;50.728;7.108;2023-02-08T11:19:31;10.20;1.00
5466;DHT22;2755;50.728;7.108;2023-02-08T11:26:51;10.40;1.00
5466;DHT22;2755;50.728;7.108;2023-02-08T11:29:23;10.90;1.00
5466;DHT22;2755;50.728;7.108;2023-02-08T11:32:14;10.90;1.00
5466;DHT22;2755;50.728;7.108;2023-02-08T11:34:40;10.90;1.00
5466;DHT22;2755;50.728;7.108;2023-02-08T11:37:20;10.60;1.00
5466;DHT22;2755;50.728;7.108;2023-02-08T11:39:59;10.90;1.00
5466;DHT22;2755;50.728;7.108;2023-02-08T11:42:35;10.30;1.00
5466;DHT22;2755;50.728;7.108;2023-02-08T11:45:03;9.80;1.00
5466;DHT22;2755;50.728;7.108;2023-02-08T11:47:32;10.20;1.00
5466;DHT22;2755;50.728;7.108;2023-02-08T11:50:00;9.60;1.00
5466;DHT22;2755;50.728;7.108;2023-02-08T11:52:30;9.40;1.00
5466;DHT22;2755;50.728;7.108;2023-02-08T11:58:03;8.40;1.00
5466;DHT22;2755;50.728;7.108;2023-02-08T12:00:31;7.30;1.00
5466;DHT22;2755;50.728;7.108;2023-02-08T12:11:32;6.80;1.00
5466;DHT22;2755;50.728;7.108;2023-02-08T12:16:56;6.60;1.00
5466;DHT22;2755;50.728;7.108;2023-02-08T12:22:07;6.50;1.00
5466;DHT22;2755;50.728;7.108;2023-02-08T12:30:05;6.40;1.00
5466;DHT22;2755;50.728;7.108;2023-02-08T12:36:20;6.40;1.00
5466;DHT22;2755;50.728;7.108;2023-02-08T12:54:11;6.30;1.00
5466;DHT22;2755;50.728;7.108;2023-02-08T12:56:45;6.10;1.00
5466;DHT22;2755;50.728;7.108;2023-02-08T12:59:34;6.30;1.00
5466;DHT22;2755;50.728;7.108;2023-02-08T13:02:28;6.50;1.00
5466;DHT22;2755;50.728;7.108;2023-02-08T13:07:33;6.30;1.00
5466;DHT22;2755;50.728;7.108;2023-02-08T13:10:05;6.40;1.00
5466;DHT22;2755;50.728;7.108;2023-02-08T13:12:38;6.30;1.00
5466;DHT22;2755;50.728;7.108;2023-02-08T13:15:15;6.40;1.00
5466;DHT22;2755;50.728;7.108;2023-02-08T13:20:22;6.30;1.00
5466;DHT22;2755;50.728;7.108;2023-02-08T13:22:52;6.50;1.00
5466;DHT22;2755;50.728;7.108;2023-02-08T13:25:30;6.20;1.00
5466;DHT22;2755;50.728;7.108;2023-02-08T13:28:05;6.20;1.00
5466;DHT22;2755;50.728;7.108;2023-02-08T13:30:34;6.00;1.00
5466;DHT22;2755;50.728;7.108;2023-02-08T13:33:10;6.20;1.00
5466;DHT22;2755;50.728;7.108;2023-02-08T13:35:38;6.60;1.00
5466;DHT22;2755;50.728;7.108;2023-02-08T13:38:24;6.00;1.00
5466;DHT22;2755;50.728;7.108;2023-02-08T13:41:05;6.30;1.00
5466;DHT22;2755;50.728;7.108;2023-02-08T13:46:33;7.00;1.00
5466;DHT22;2755;50.728;7.108;2023-02-08T13:56:45;6.60;1.00
5466;DHT22;2755;50.728;7.108;2023-02-08T13:59:24;6.10;1.00
5466;DHT22;2755;50.728;7.108;2023-02-08T14:04:44;6.00;1.00
5466;DHT22;2755;50.728;7.108;2023-02-08T14:14:28;6.50;1.00
5466;DHT22;2755;50.728;7.108;2023-02-08T14:19:34;6.30;1.00
5466;DHT22;2755;50.728;7.108;2023-02-08T14:24:41;6.40;1.00
5466;DHT22;2755;50.728;7.108;2023-02-08T14:27:22;6.20;1.00
5466;DHT22;2755;50.728;7.108;2023-02-08T14:29:59;6.20;1.00
5466;DHT22;2755;50.728;7.108;2023-02-08T14:32:28;6.10;1.00
5466;DHT22;2755;50.728;7.108;2023-02-08T14:37:28;6.20;1.00
5466;DHT22;2755;50.728;7.108;2023-02-08T14:48:05;6.20;1.00
5466;DHT22;2755;50.728;7.108;2023-02-08T14:50:41;6.10;1.00
5466;DHT22;2755;50.728;7.108;2023-02-08T14:55:56;5.90;1.00
5466;DHT22;2755;50.728;7.108;2023-02-08T14:58:28;5.90;1.00
5466;DHT22;2755;50.728;7.108;2023-02-08T15:00:59;6.30;1.00
5466;DHT22;2755;50.728;7.108;2023-02-08T15:03:26;5.70;1.00
5466;DHT22;2755;50.728;7.108;2023-02-08T15:08:48;5.70;1.00
5466;DHT22;2755;50.728;7.108;2023-02-08T15:11:23;5.90;1.00
5466;DHT22;2755;50.728;7.108;2023-02-08T15:13:50;6.20;1.00
5466;DHT22;2755;50.728;7.108;2023-02-08T15:16:17;5.70;1.00
5466;DHT22;2755;50.728;7.108;2023-02-08T15:18:45;5.20;1.00
5466;DHT22;2755;50.728;7.108;2023-02-08T15:21:16;5.80;1.00
5466;DHT22;2755;50.728;7.108;2023-02-08T15:24:00;5.70;1.00
5466;DHT22;2755;50.728;7.108;2023-02-08T15:26:26;5.50;1.00
5466;DHT22;2755;50.728;7.108;2023-02-08T15:31:22;5.20;1.00
5466;DHT22;2755;50.728;7.108;2023-02-08T15:33:48;5.70;1.00
5466;DHT22;2755;50.728;7.108;2023-02-08T15:38:46;5.10;1.00
5466;DHT22;2755;50.728;7.108;2023-02-08T15:41:25;5.60;1.00
5466;DHT22;2755;50.728;7.108;2023-02-08T15:44:19;5.50;1.00
5466;DHT22;2755;50.728;7.108;2023-02-08T15:46:46;5.10;1.00
5466;DHT22;2755;50.728;7.108;2023-02-08T15:49:19;6.00;1.00
5466;DHT22;2755;50.728;7.108;2023-02-08T15:54:16;4.60;1.00
5466;DHT22;2755;50.728;7.108;2023-02-08T15:57:06;5.30;1.00
5466;DHT22;2755;50.728;7.108;2023-02-08T16:02:31;5.10;1.00
5466;DHT22;2755;50.728;7.108;2023-02-08T16:04:58;5.20;1.00
5466;DHT22;2755;50.728;7.108;2023-02-08T16:07:34;5.20;1.00
5466;DHT22;2755;50.728;7.108;2023-02-08T16:10:02;5.10;1.00
5466;DHT22;2755;50.728;7.108;2023-02-08T16:14:55;4.90;1.00
5466;DHT22;2755;50.728;7.108;2023-02-08T16:17:47;4.90;1.00
5466;DHT22;2755;50.728;7.108;2023-02-08T16:20:28;4.80;1.00
5466;DHT22;2755;50.728;7.108;2023-02-08T16:25:44;4.50;1.00
5466;DHT22;2755;50.728;7.108;2023-02-08T16:28:32;4.60;1.00
5466;DHT22;2755;50.728;7.108;2023-02-08T16:31:02;4.70;1.00
5466;DHT22;2755;50.728;7.108;2023-02-08T16:33:30;3.20;1.00
5466;DHT22;2755;50.728;7.108;2023-02-08T16:35:56;3.80;1.00
5466;DHT22;2755;50.728;7.108;2023-02-08T16:38:28;4.10;1.00
5466;DHT22;2755;50.728;7.108;2023-02-08T16:40:56;4.10;1.00
5466;DHT22;2755;50.728;7.108;2023-02-08T16:43:32;4.20;1.00
5466;DHT22;2755;50.728;7.108;2023-02-08T16:48:44;4.60;1.00
5466;DHT22;2755;50.728;7.108;2023-02-08T16:51:24;4.00;1.00
5466;DHT22;2755;50.728;7.108;2023-02-08T16:53:52;4.50;2.50
5466;DHT22;2755;50.728;7.108;2023-02-08T17:01:12;4.00;3.00
5466;DHT22;2755;50.728;7.108;2023-02-08T17:03:39;3.70;4.10
5466;DHT22;2755;50.728;7.108;2023-02-08T17:06:05;3.80;4.10
5466;DHT22;2755;50.728;7.108;2023-02-08T17:08:31;3.60;5.50
5466;DHT22;2755;50.728;7.108;2023-02-08T17:10:57;3.60;6.80
5466;DHT22;2755;50.728;7.108;2023-02-08T17:13:23;3.30;6.20
5466;DHT22;2755;50.728;7.108;2023-02-08T17:15:51;3.50;8.30
5466;DHT22;2755;50.728;7.108;2023-02-08T17:18:18;3.10;8.40
5466;DHT22;2755;50.728;7.108;2023-02-08T17:20:44;2.80;10.30
5466;DHT22;2755;50.728;7.108;2023-02-08T17:23:11;3.30;13.00
5466;DHT22;2755;50.728;7.108;2023-02-08T17:25:36;2.60;13.10
5466;DHT22;2755;50.728;7.108;2023-02-08T17:28:08;2.70;13.20
5466;DHT22;2755;50.728;7.108;2023-02-08T17:30:39;2.60;17.70
5466;DHT22;2755;50.728;7.108;2023-02-08T17:33:06;2.90;17.00
5466;DHT22;2755;50.728;7.108;2023-02-08T17:35:33;2.30;19.30
5466;DHT22;2755;50.728;7.108;2023-02-08T17:38:00;2.30;21.00
5466;DHT22;2755;50.728;7.108;2023-02-08T17:40:28;3.40;18.50
5466;DHT22;2755;50.728;7.108;2023-02-08T17:43:00;1.80;21.20
5466;DHT22;2755;50.728;7.108;2023-02-08T17:45:26;2.10;19.50
5466;DHT22;2755;50.728;7.108;2023-02-08T17:47:54;2.50;19.60
5466;DHT22;2755;50.728;7.108;2023-02-08T17:50:20;2.20;17.60
5466;DHT22;2755;50.728;7.108;2023-02-08T17:52:46;2.20;18.10
5466;DHT22;2755;50.728;7.108;2023-02-08T17:55:14;2.10;18.80
5466;DHT22;2755;50.728;7.108;2023-02-08T17:57:40;2.20;20.30
5466;DHT22;2755;50.728;7.108;2023-02-08T18:00:15;1.90;21.60
5466;DHT22;2755;50.728;7.108;2023-02-08T18:02:49;1.80;21.10
5466;DHT22;2755;50.728;7.108;2023-02-08T18:05:20;2.00;24.90
5466;DHT22;2755;50.728;7.108;2023-02-08T18:10:13;0.70;22.60
5466;DHT22;2755;50.728;7.108;2023-02-08T18:12:39;1.60;23.90
5466;DHT22;2755;50.728;7.108;2023-02-08T18:15:08;1.50;26.80
5466;DHT22;2755;50.728;7.108;2023-02-08T18:20:00;1.20;29.30
5466;DHT22;2755;50.728;7.108;2023-02-08T18:22:26;1.30;29.80
5466;DHT22;2755;50.728;7.108;2023-02-08T18:24:52;1.60;29.50
5466;DHT22;2755;50.728;7.108;2023-02-08T18:27:20;1.20;32.40
5466;DHT22;2755;50.728;7.108;2023-02-08T18:29:45;1.00;33.10
5466;DHT22;2755;50.728;7.108;2023-02-08T18:32:11;1.00;28.70
5466;DHT22;2755;50.728;7.108;2023-02-08T18:34:37;2.00;27.80
5466;DHT22;2755;50.728;7.108;2023-02-08T18:37:04;1.60;27.60
5466;DHT22;2755;50.728;7.108;2023-02-08T18:39:30;0.80;30.10
5466;DHT22;2755;50.728;7.108;2023-02-08T18:41:55;1.10;28.50
5466;DHT22;2755;50.728;7.108;2023-02-08T18:44:21;1.10;27.50
5466;DHT22;2755;50.728;7.108;2023-02-08T18:46:46;0.60;27.40
5466;DHT22;2755;50.728;7.108;2023-02-08T18:49:14;0.80;29.90
5466;DHT22;2755;50.728;7.108;2023-02-08T18:51:41;0.70;27.40
5466;DHT22;2755;50.728;7.108;2023-02-08T18:54:10;1.40;31.50
5466;DHT22;2755;50.728;7.108;2023-02-08T18:56:37;1.00;27.70
5466;DHT22;2755;50.728;7.108;2023-02-08T18:59:02;1.60;28.90
5466;DHT22;2755;50.728;7.108;2023-02-08T19:01:28;0.80;28.60
5466;DHT22;2755;50.728;7.108;2023-02-08T19:06:22;2.00;27.20
5466;DHT22;2755;50.728;7.108;2023-02-08T19:08:50;1.20;26.20
5466;DHT22;2755;50.728;7.108;2023-02-08T19:11:20;1.20;24.40
5466;DHT22;2755;50.728;7.108;2023-02-08T19:13:47;1.40;27.50
5466;DHT22;2755;50.728;7.108;2023-02-08T19:16:13;1.20;24.90
5466;DHT22;2755;50.728;7.108;2023-02-08T19:18:44;1.50;27.50
5466;DHT22;2755;50.728;7.108;2023-02-08T19:21:14;1.20;27.70
5466;DHT22;2755;50.728;7.108;2023-02-08T19:23:40;0.90;25.90
5466;DHT22;2755;50.728;7.108;2023-02-08T19:26:15;1.00;26.10
5466;DHT22;2755;50.728;7.108;2023-02-08T19:28:41;0.90;27.70
5466;DHT22;2755;50.728;7.108;2023-02-08T19:31:09;0.90;27.40
5466;DHT22;2755;50.728;7.108;2023-02-08T19:33:39;1.00;30.00
5466;DHT22;2755;50.728;7.108;2023-02-08T19:36:11;0.70;29.80
5466;DHT22;2755;50.728;7.108;2023-02-08T19:38:37;0.30;33.30
5466;DHT22;2755;50.728;7.108;2023-02-08T19:41:04;0.00;32.50
5466;DHT22;2755;50.728;7.108;2023-02-08T19:43:30;1.30;33.30
5466;DHT22;2755;50.728;7.108;2023-02-08T19:45:56;0.50;33.40
5466;DHT22;2755;50.728;7.108;2023-02-08T19:50:56;1.10;32.10
5466;DHT22;2755;50.728;7.108;2023-02-08T19:53:23;0.70;28.40
5466;DHT22;2755;50.728;7.108;2023-02-08T19:55:57;0.70;28.20
5466;DHT22;2755;50.728;7.108;2023-02-08T19:58:23;0.70;28.50
5466;DHT22;2755;50.728;7.108;2023-02-08T20:00:49;0.70;29.50
5466;DHT22;2755;50.728;7.108;2023-02-08T20:05:42;1.60;29.40
5466;DHT22;2755;50.728;7.108;2023-02-08T20:08:07;1.20;26.00
5466;DHT22;2755;50.728;7.108;2023-02-08T20:10:44;1.30;28.20
5466;DHT22;2755;50.728;7.108;2023-02-08T20:13:11;1.70;25.50
5466;DHT22;2755;50.728;7.108;2023-02-08T20:15:39;1.20;27.50
5466;DHT22;2755;50.728;7.108;2023-02-08T20:18:06;1.20;28.20
5466;DHT22;2755;50.728;7.108;2023-02-08T20:25:27;1.00;26.40
5466;DHT22;2755;50.728;7.108;2023-02-08T20:27:54;1.20;28.60
5466;DHT22;2755;50.728;7.108;2023-02-08T20:30:20;1.40;27.50
5466;DHT22;2755;50.728;7.108;2023-02-08T20:32:45;1.20;27.90
5466;DHT22;2755;50.728;7.108;2023-02-08T20:35:12;2.10;29.90
5466;DHT22;2755;50.728;7.108;2023-02-08T20:37:38;1.20;29.70
5466;DHT22;2755;50.728;7.108;2023-02-08T20:40:04;0.90;27.50
5466;DHT22;2755;50.728;7.108;2023-02-08T20:42:30;1.40;29.90
5466;DHT22;2755;50.728;7.108;2023-02-08T20:44:56;1.50;27.20
5466;DHT22;2755;50.728;7.108;2023-02-08T20:47:21;1.90;29.50
5466;DHT22;2755;50.728;7.108;2023-02-08T20:49:48;1.60;26.50
5466;DHT22;2755;50.728;7.108;2023-02-08T20:52:13;1.40;29.70
5466;DHT22;2755;50.728;7.108;2023-02-08T20:54:39;1.20;26.60
5466;DHT22;2755;50.728;7.108;2023-02-08T20:57:07;1.30;27.50
5466;DHT22;2755;50.728;7.108;2023-02-08T20:59:36;0.90;26.00
5466;DHT22;2755;50.728;7.108;2023-02-08T21:02:02;1.30;26.20
5466;DHT22;2755;50.728;7.108;2023-02-08T21:04:32;1.40;27.00
5466;DHT22;2755;50.728;7.108;2023-02-08T21:06:58;1.20;27.10
5466;DHT22;2755;50.728;7.108;2023-02-08T21:11:50;1.00;26.70
5466;DHT22;2755;50.728;7.108;2023-02-08T21:14:17;1.00;29.60
5466;DHT22;2755;50.728;7.108;2023-02-08T21:16:44;1.20;26.60
5466;DHT22;2755;50.728;7.108;2023-02-08T21:19:10;1.30;29.70
5466;DHT22;2755;50.728;7.108;2023-02-08T21:21:37;1.20;27.20
5466;DHT22;2755;50.728;7.108;2023-02-08T21:24:03;1.40;28.00
5466;DHT22;2755;50.728;7.108;2023-02-08T21:28:55;1.20;26.70
5466;DHT22;2755;50.728;7.108;2023-02-08T21:31:24;1.10;30.30
5466;DHT22;2755;50.728;7.108;2023-02-08T21:33:50;1.10;30.80
5466;DHT22;2755;50.728;7.108;2023-02-08T21:36:18;1.20;29.20
5466;DHT22;2755;50.728;7.108;2023-02-08T21:38:44;1.00;28.50
5466;DHT22;2755;50.728;7.108;2023-02-08T21:41:17;1.20;29.90
5466;DHT22;2755;50.728;7.108;2023-02-08T21:43:46;0.90;31.40
5466;DHT22;2755;50.728;7.108;2023-02-08T21:48:38;1.10;31.20
5466;DHT22;2755;50.728;7.108;2023-02-08T21:51:23;1.30;29.40
5466;DHT22;2755;50.728;7.108;2023-02-08T21:54:14;1.10;31.70
5466;DHT22;2755;50.728;7.108;2023-02-08T21:57:03;0.80;32.10
5466;DHT22;2755;50.728;7.108;2023-02-08T21:59:31;0.80;28.40
5466;DHT22;2755;50.728;7.108;2023-02-08T22:04:26;0.70;31.80
5466;DHT22;2755;50.728;7.108;2023-02-08T22:06:52;0.20;31.10
5466;DHT22;2755;50.728;7.108;2023-02-08T22:09:19;0.70;34.10
5466;DHT22;2755;50.728;7.108;2023-02-08T22:11:46;0.90;34.00
5466;DHT22;2755;50.728;7.108;2023-02-08T22:14:13;0.60;30.00
5466;DHT22;2755;50.728;7.108;2023-02-08T22:16:39;0.50;34.50
5466;DHT22;2755;50.728;7.108;2023-02-08T22:19:06;0.60;33.10
5466;DHT22;2755;50.728;7.108;2023-02-08T22:21:32;0.40;32.40
5466;DHT22;2755;50.728;7.108;2023-02-08T22:24:00;0.00;33.10
5466;DHT22;2755;50.728;7.108;2023-02-08T22:26:25;0.30;32.30
5466;DHT22;2755;50.728;7.108;2023-02-08T22:28:51;0.10;33.00
5466;DHT22;2755;50.728;7.108;2023-02-08T22:31:17;0.40;34.20
5466;DHT22;2755;50.728;7.108;2023-02-08T22:33:42;0.30;37.20
5466;DHT22;2755;50.728;7.108;2023-02-08T22:36:09;0.50;38.90
5466;DHT22;2755;50.728;7.108;2023-02-08T22:41:01;-0.20;39.60
5466;DHT22;2755;50.728;7.108;2023-02-08T22:43:32;-0.20;39.90
5466;DHT22;2755;50.728;7.108;2023-02-08T22:45:58;0.00;36.10
5466;DHT22;2755;50.728;7.108;2023-02-08T22:48:24;-0.40;40.80
5466;DHT22;2755;50.728;7.108;2023-02-08T22:50:50;-0.40;43.10
5466;DHT22;2755;50.728;7.108;2023-02-08T22:53:16;-0.30;40.10
5466;DHT22;2755;50.728;7.108;2023-02-08T22:55:52;-0.50;39.10
5466;DHT22;2755;50.728;7.108;2023-02-08T22:58:19;-0.80;45.40
5466;DHT22;2755;50.728;7.108;2023-02-08T23:00:46;-0.60;40.90
5466;DHT22;2755;50.728;7.108;2023-02-08T23:03:13;-0.40;44.80
5466;DHT22;2755;50.728;7.108;2023-02-08T23:05:43;-0.80;43.60
5466;DHT22;2755;50.728;7.108;2023-02-08T23:08:10;-0.60;45.10
5466;DHT22;2755;50.728;7.108;2023-02-08T23:10:36;0.10;46.20
5466;DHT22;2755;50.728;7.108;2023-02-08T23:13:02;-0.60;45.00
5466;DHT22;2755;50.728;7.108;2023-02-08T23:15:28;-0.40;47.00
5466;DHT22;2755;50.728;7.108;2023-02-08T23:17:54;-1.00;45.00
5466;DHT22;2755;50.728;7.108;2023-02-08T23:20:20;-0.80;44.80
5466;DHT22;2755;50.728;7.108;2023-02-08T23:25:11;-1.00;50.70
5466;DHT22;2755;50.728;7.108;2023-02-08T23:27:37;-1.00;49.50
5466;DHT22;2755;50.728;7.108;2023-02-08T23:30:03;-1.00;50.80
5466;DHT22;2755;50.728;7.108;2023-02-08T23:34:55;-0.60;50.70
5466;DHT22;2755;50.728;7.108;2023-02-08T23:42:12;-0.30;46.80
5466;DHT22;2755;50.728;7.108;2023-02-08T23:44:59;-0.40;47.00
5466;DHT22;2755;50.728;7.108;2023-02-08T23:47:26;-0.20;49.20
5466;DHT22;2755;50.728;7.108;2023-02-08T23:49:52;-0.60;48.10
5466;DHT22;2755;50.728;7.108;2023-02-08T23:52:18;-0.40;48.00
5466;DHT22;2755;50.728;7.108;2023-02-08T23:54:44;-0.70;50.20
5466;DHT22;2755;50.728;7.108;2023-02-08T23:57:10;0.00;49.00
5466;DHT22;2755;50.728;7.108;2023-02-08T23:59:36;-0.40;48.90
